createdAt,value
2023-04-16T01:04:08.498Z,1005.5
2023-04-16T01:09:08.947Z,1005.5
2023-04-16T01:14:09.286Z,1005.4
2023-04-16T01:19:06.504Z,1005.5
2023-04-16T01:24:05.909Z,1005.5
2023-04-16T01:29:05.547Z,1005.6
2023-04-16T01:34:04.858Z,1005.6
2023-04-16T01:39:03.906Z,1005.6
2023-04-16T01:44:04.999Z,1005.6
2023-04-16T01:49:03.436Z,1005.6
2023-04-16T01:54:02.698Z,1005.6
2023-04-16T01:59:04.946Z,1005.6
2023-04-16T02:04:00.529Z,1005.6
2023-04-16T02:09:00.160Z,1005.6
2023-04-16T02:13:59.768Z,1005.6
2023-04-16T02:18:59.368Z,1005.7
2023-04-16T02:23:58.796Z,1005.7
2023-04-16T02:28:59.024Z,1005.7
2023-04-16T02:33:58.642Z,1005.7
2023-04-16T02:38:56.441Z,1005.7
2023-04-16T02:43:56.106Z,1005.8
2023-04-16T02:48:55.571Z,1005.8
2023-04-16T02:53:55.239Z,1005.8
2023-04-16T02:58:54.436Z,1005.7
2023-04-16T03:00:40.851Z,1005.8
2023-04-16T03:05:15.453Z,1005.8
2023-04-16T03:10:15.250Z,1005.8
2023-04-16T03:15:15.971Z,1005.8
2023-04-16T03:20:12.942Z,1005.8
2023-04-16T03:25:13.301Z,1005.8
2023-04-16T03:30:12.232Z,1005.9
2023-04-16T03:35:12.002Z,1005.9
2023-04-16T03:40:09.455Z,1006
2023-04-16T03:45:09.244Z,1006
2023-04-16T03:50:08.497Z,1006
2023-04-16T03:55:09.558Z,1006
2023-04-16T04:35:19.087Z,1006.2
2023-04-16T05:04:11.729Z,1006.5
2023-04-16T05:09:11.018Z,1006.6
2023-04-16T05:14:12.532Z,1006.6
2023-04-16T05:19:09.003Z,1006.7
2023-04-16T05:24:08.076Z,1006.7
2023-04-16T05:29:08.005Z,1006.7
2023-04-16T05:34:08.215Z,1006.8
2023-04-16T05:39:07.829Z,1006.8
2023-04-16T05:44:07.461Z,1006.8
2023-04-16T05:49:06.863Z,1006.9
2023-04-16T05:54:08.045Z,1007
2023-04-16T05:59:04.958Z,1007
2023-04-16T06:04:05.259Z,1007
2023-04-16T06:09:04.272Z,1007
2023-04-16T06:14:04.333Z,1007
2023-04-16T06:19:01.771Z,1007.1
2023-04-16T06:24:01.278Z,1007.1
2023-04-16T06:29:00.860Z,1007.1
2023-04-16T06:34:00.281Z,1007.2
2023-04-16T06:38:59.649Z,1007.2
2023-04-16T06:43:59.325Z,1007.2
2023-04-16T06:48:59.803Z,1007.2
2023-04-16T06:53:59.199Z,1007.2
2023-04-16T06:59:00.079Z,1007.3
2023-04-16T07:00:47.003Z,1007.3
2023-04-16T07:05:20.001Z,1007.3
2023-04-16T07:10:19.596Z,1007.4
2023-04-16T07:15:19.257Z,1007.4
2023-04-16T07:20:18.826Z,1007.4
2023-04-16T07:25:19.197Z,1007.4
2023-04-16T07:30:18.887Z,1007.5
2023-04-16T07:35:19.693Z,1007.5
2023-04-16T07:40:16.096Z,1007.5
2023-04-16T07:45:16.425Z,1007.5
2023-04-16T07:50:15.612Z,1007.5
2023-04-16T07:55:15.704Z,1007.6
2023-04-16T07:59:32.464Z,1007.6
2023-04-16T08:04:16.821Z,1007.6
2023-04-16T08:09:15.663Z,1007.6
2023-04-16T08:14:15.496Z,1007.7
2023-04-16T08:19:15.070Z,1007.8
2023-04-16T08:24:14.849Z,1007.8
2023-04-16T08:29:14.586Z,1007.9
2023-04-16T08:34:14.203Z,1007.9
2023-04-16T08:39:13.122Z,1008
2023-04-16T08:44:12.716Z,1008
2023-04-16T08:49:12.295Z,1008
2023-04-16T08:54:11.628Z,1008
2023-04-16T08:59:26.091Z,1008.1
2023-04-16T09:04:11.907Z,1008.1
2023-04-16T09:09:09.838Z,1008.1
2023-04-16T09:14:09.186Z,1008.1
2023-04-16T09:19:10.751Z,1008.2
2023-04-16T09:24:06.860Z,1008.2
2023-04-16T09:29:06.971Z,1008.2
2023-04-16T09:34:06.268Z,1008.2
2023-04-16T09:39:08.302Z,1008.2
2023-04-16T09:44:03.901Z,1008.3
2023-04-16T09:49:03.559Z,1008.3
2023-04-16T09:54:02.820Z,1008.3
2023-04-16T09:59:02.519Z,1008.4
2023-04-16T10:04:02.747Z,1008.4
2023-04-16T10:09:01.988Z,1008.4
2023-04-16T10:14:00.750Z,1008.4
2023-04-16T10:19:01.138Z,1008.5
2023-04-16T10:23:58.480Z,1008.5
2023-04-16T10:28:58.696Z,1008.5
2023-04-16T10:33:58.229Z,1008.6
2023-04-16T10:38:57.657Z,1008.6
2023-04-16T10:43:57.154Z,1008.6
2023-04-16T10:49:10.271Z,1008.6
2023-04-16T10:53:56.071Z,1008.6
2023-04-16T10:58:55.789Z,1008.7
2023-04-16T11:00:41.937Z,1008.7
2023-04-16T12:59:14.269Z,1008.9
2023-04-16T13:04:15.339Z,1008.9
2023-04-16T13:09:13.899Z,1008.9
2023-04-16T13:14:13.671Z,1008.9
2023-04-16T13:19:11.579Z,1008.9
2023-04-16T13:24:11.202Z,1008.9
2023-04-16T13:29:10.614Z,1008.9
2023-04-16T13:34:10.809Z,1008.9
2023-04-16T13:39:08.088Z,1008.9
2023-04-16T13:49:07.585Z,1008.9
2023-04-16T13:54:06.969Z,1008.9
2023-04-16T13:58:54.728Z,1008.9
2023-04-16T14:03:55.013Z,1008.9
2023-04-16T14:08:54.404Z,1008.9
2023-04-16T14:18:55.361Z,1008.9
2023-04-16T14:23:51.834Z,1008.9
2023-04-16T14:28:51.815Z,1008.9
2023-04-16T14:33:51.411Z,1008.9
2023-04-16T14:38:51.565Z,1008.9
2023-04-16T14:43:51.099Z,1008.9
2023-04-16T14:48:48.487Z,1008.9
2023-04-16T14:53:47.874Z,1008.9
2023-04-16T14:58:44.396Z,1008.9
2023-04-16T15:03:33.310Z,1008.9
2023-04-16T15:08:31.939Z,1008.9
2023-04-16T15:13:31.591Z,1008.9
2023-04-16T15:18:31.224Z,1008.9
2023-04-16T15:23:28.828Z,1008.9
2023-04-16T15:28:28.836Z,1008.9
2023-04-16T15:33:28.160Z,1008.9
2023-04-16T15:38:27.448Z,1009
2023-04-16T15:43:27.003Z,1009
2023-04-16T15:48:28.132Z,1009.1
2023-04-16T15:53:26.398Z,1009.1
2023-04-16T15:58:12.899Z,1009.1
2023-04-16T16:03:12.776Z,1009.1
2023-04-16T16:08:11.944Z,1009.1
2023-04-16T16:13:13.102Z,1009.1
2023-04-16T16:18:11.881Z,1009.1
2023-04-16T16:23:22.921Z,1009.1
2023-04-16T16:28:20.136Z,1009.2
2023-04-16T16:33:20.161Z,1009.2
2023-04-16T16:38:20.729Z,1009.2
2023-04-16T16:43:18.047Z,1009.2
2023-04-16T16:48:17.365Z,1009.1
2023-04-16T16:53:18.566Z,1009.2
2023-04-16T16:58:16.053Z,1009.2
2023-04-16T17:00:03.221Z,1009.2
2023-04-16T18:04:14.482Z,1009.6
2023-04-16T18:09:13.297Z,1009.6
2023-04-16T18:14:13.265Z,1009.7
2023-04-16T18:19:12.604Z,1009.7
2023-04-16T18:24:12.190Z,1009.6
2023-04-16T18:29:13.633Z,1009.6
2023-04-16T18:34:20.806Z,1009.7
2023-04-16T18:39:23.250Z,1009.8
2023-04-16T18:44:19.830Z,1009.8
2023-04-16T18:49:18.592Z,1009.8
2023-04-16T18:54:19.262Z,1009.8
2023-04-16T18:59:19.580Z,1009.7
2023-04-16T19:04:17.539Z,1009.8
2023-04-16T19:09:17.474Z,1009.8
2023-04-16T19:14:16.868Z,1009.9
2023-04-16T19:19:15.653Z,1009.9
2023-04-16T19:24:16.275Z,1009.9
2023-04-16T19:29:15.807Z,1009.9
2023-04-16T19:34:16.512Z,1009.9
2023-04-16T19:39:03.673Z,1010
2023-04-16T19:44:02.862Z,1010
2023-04-16T19:49:02.785Z,1010
2023-04-16T19:54:03.922Z,1010
2023-04-16T19:58:59.982Z,1010
2023-04-16T20:00:48.547Z,1010.1
2023-04-16T20:05:20.810Z,1010.1
2023-04-16T20:10:20.050Z,1010.1
2023-04-16T20:15:19.788Z,1010.1
2023-04-16T20:20:20.060Z,1010.1
2023-04-16T20:25:19.770Z,1010.1
2023-04-16T20:30:20.861Z,1010.1
2023-04-16T20:35:17.439Z,1010
2023-04-16T20:40:17.721Z,1010
2023-04-16T20:45:16.980Z,1010
2023-04-16T20:50:16.705Z,1010
2023-04-16T21:04:17.455Z,1009.9
2023-04-16T21:24:15.055Z,1009.9
2023-04-16T21:29:16.871Z,1009.9
2023-04-16T21:44:13.054Z,1010
2023-04-16T23:04:04.598Z,1009.7
2023-04-16T23:09:04.587Z,1009.7
2023-04-16T23:14:04.180Z,1009.7
2023-04-16T23:19:02.514Z,1009.7
2023-04-16T23:24:02.785Z,1009.7
2023-04-16T23:29:01.940Z,1009.7
2023-04-16T23:34:53.674Z,1009.7
2023-04-16T23:39:01.629Z,1009.7
2023-04-16T23:43:59.179Z,1009.7
2023-04-16T23:48:59.045Z,1009.7
2023-04-16T23:53:58.572Z,1009.7
2023-04-16T23:58:58.332Z,1009.7
